Time;durP1;ratioP1;P1;durP2;ratioP2;P2;SDS_P1;SDS_P2;PMS_P1;PMS_P2;Temp;Humidity;BMP_temperature;BMP_pressure;BME280_temperature;BME280_humidity;BME280_pressure;Samples;Min_cycle;Max_cycle;Signal;HPM_P1;HPM_P2
2022/09/02 00:01:54;;;;;;;;;;;24.30;72.70;;;;;;5037342;28;19926;-62
2022/09/02 00:04:21;;;;;;;;;;;24.20;72.50;;;;;;5036429;28;19932;-62
2022/09/02 00:06:47;;;;;;;;;;;24.40;72.90;;;;;;5036244;28;20379;-62
2022/09/02 00:09:14;;;;;;;;;;;24.20;72.80;;;;;;5054261;28;20004;-61
2022/09/02 00:11:39;;;;;;;;;;;24.00;72.60;;;;;;5020463;28;19925;-61
2022/09/02 00:14:06;;;;;;;;;;;24.10;72.60;;;;;;5056561;28;19932;-61
2022/09/02 00:16:32;;;;;;;;;;;24.20;72.80;;;;;;5036252;28;19940;-61
2022/09/02 00:18:58;;;;;;;;;;;24.30;72.60;;;;;;5042437;28;20011;-61
2022/09/02 00:21:24;;;;;;;;;;;24.00;72.40;;;;;;5055079;28;20382;-63
2022/09/02 00:23:50;;;;;;;;;;;23.90;72.20;;;;;;5036961;28;20003;-62
2022/09/02 00:26:15;;;;;;;;;;;24.00;72.20;;;;;;5035711;28;20071;-62
2022/09/02 00:28:41;;;;;;;;;;;24.10;72.00;;;;;;5035986;28;19925;-61
2022/09/02 00:31:07;;;;;;;;;;;24.00;72.10;;;;;;5045626;28;19928;-62
2022/09/02 00:33:32;;;;;;;;;;;24.10;72.10;;;;;;5043511;28;19925;-61
2022/09/02 00:36:01;;;;;;;;;;;24.20;72.20;;;;;;5035839;28;20020;-62
2022/09/02 00:38:27;;;;;;;;;;;24.00;70.90;;;;;;5051221;28;19925;-62
2022/09/02 00:40:53;;;;;;;;;;;24.20;72.30;;;;;;5045305;28;20317;-62
2022/09/02 00:43:22;;;;;;;;;;;23.90;72.00;;;;;;5036408;28;19929;-62
2022/09/02 00:45:48;;;;;;;;;;;23.90;70.80;;;;;;5047411;28;20279;-61
2022/09/02 00:48:14;;;;;;;;;;;24.30;72.00;;;;;;5038858;28;19929;-61
2022/09/02 00:50:39;;;;;;;;;;;24.10;72.10;;;;;;5035204;28;20004;-61
2022/09/02 00:53:05;;;;;;;;;;;24.20;71.80;;;;;;5017760;28;19926;-62
2022/09/02 00:55:33;;;;;;;;;;;24.00;72.20;;;;;;5056108;28;20325;-62
2022/09/02 00:58:00;;;;;;;;;;;23.90;72.20;;;;;;5042853;28;19925;-61
2022/09/02 01:00:27;;;;;;;;;;;23.90;72.10;;;;;;5035360;28;20334;-61
2022/09/02 01:02:54;;;;;;;;;;;24.00;70.90;;;;;;5017931;28;19925;-62
2022/09/02 01:05:20;;;;;;;;;;;23.90;72.20;;;;;;5035288;28;19929;-62
2022/09/02 01:07:46;;;;;;;;;;;23.90;72.20;;;;;;5046858;28;19932;-61
2022/09/02 01:10:16;;;;;;;;;;;24.00;72.20;;;;;;5035084;28;20021;-61
2022/09/02 01:12:42;;;;;;;;;;;24.00;70.90;;;;;;5035670;28;19988;-62
2022/09/02 01:15:08;;;;;;;;;;;23.80;72.10;;;;;;5036831;28;19935;-61
2022/09/02 01:17:33;;;;;;;;;;;24.00;71.90;;;;;;5043752;28;19925;-62
2022/09/02 01:20:04;;;;;;;;;;;24.10;72.20;;;;;;5054555;28;19932;-61
2022/09/02 01:22:31;;;;;;;;;;;23.70;72.10;;;;;;5054888;28;19925;-62
2022/09/02 01:24:58;;;;;;;;;;;23.80;72.20;;;;;;5054493;28;20382;-64
2022/09/02 01:27:24;;;;;;;;;;;23.90;72.30;;;;;;5063328;28;19971;-62
2022/09/02 01:29:51;;;;;;;;;;;23.90;72.10;;;;;;5043226;28;19928;-61
2022/09/02 01:32:17;;;;;;;;;;;23.90;72.30;;;;;;5050375;28;19929;-62
2022/09/02 01:34:42;;;;;;;;;;;24.00;72.30;;;;;;5034697;28;20024;-62
2022/09/02 01:37:08;;;;;;;;;;;23.80;71.90;;;;;;5034700;28;20359;-62
2022/09/02 01:39:34;;;;;;;;;;;23.70;72.00;;;;;;5036148;28;19925;-62
2022/09/02 01:42:00;;;;;;;;;;;23.50;71.90;;;;;;5050254;28;19925;-61
2022/09/02 01:44:26;;;;;;;;;;;23.80;72.20;;;;;;5033746;28;19925;-61
2022/09/02 01:46:52;;;;;;;;;;;23.70;72.10;;;;;;5049844;28;19925;-61
2022/09/02 01:49:18;;;;;;;;;;;23.70;72.30;;;;;;5039057;28;19991;-65
2022/09/02 01:51:43;;;;;;;;;;;23.90;72.10;;;;;;5035086;28;19925;-61
2022/09/02 01:54:09;;;;;;;;;;;23.70;72.10;;;;;;5054238;28;19924;-61
2022/09/02 01:56:34;;;;;;;;;;;23.60;72.00;;;;;;5047464;28;20291;-62
2022/09/02 01:59:01;;;;;;;;;;;23.50;71.90;;;;;;5044527;28;19929;-62
2022/09/02 02:01:27;;;;;;;;;;;23.80;72.20;;;;;;5042398;28;19929;-62
2022/09/02 02:03:52;;;;;;;;;;;23.80;72.20;;;;;;5034274;28;19925;-62
2022/09/02 02:06:19;;;;;;;;;;;23.60;71.80;;;;;;5034286;28;20306;-63
2022/09/02 02:08:45;;;;;;;;;;;23.70;72.20;;;;;;5052316;28;20359;-62
2022/09/02 02:11:10;;;;;;;;;;;23.60;71.80;;;;;;5049959;28;19944;-61
2022/09/02 02:13:36;;;;;;;;;;;23.60;72.10;;;;;;5065940;28;20279;-62
2022/09/02 02:16:02;;;;;;;;;;;23.70;71.90;;;;;;5034108;28;19948;-61
2022/09/02 02:18:28;;;;;;;;;;;23.70;71.90;;;;;;5044845;28;19929;-62
2022/09/02 02:20:54;;;;;;;;;;;23.50;71.70;;;;;;5053959;28;19971;-62
2022/09/02 02:23:21;;;;;;;;;;;24.00;72.10;;;;;;5048065;28;19925;-62
2022/09/02 02:25:46;;;;;;;;;;;23.50;71.60;;;;;;5033686;28;19921;-61
2022/09/02 02:28:13;;;;;;;;;;;23.70;72.00;;;;;;5034865;28;19925;-62
2022/09/02 02:30:39;;;;;;;;;;;23.70;72.10;;;;;;5053857;28;19948;-61
2022/09/02 02:33:04;;;;;;;;;;;23.50;71.80;;;;;;5044916;28;19925;-61
2022/09/02 02:35:30;;;;;;;;;;;23.50;72.00;;;;;;5033917;28;19933;-61
2022/09/02 02:37:56;;;;;;;;;;;23.50;72.00;;;;;;5032403;28;19932;-61
2022/09/02 02:40:23;;;;;;;;;;;23.40;72.20;;;;;;5036109;28;19925;-61
2022/09/02 02:42:49;;;;;;;;;;;23.40;72.30;;;;;;5049796;28;19925;-62
2022/09/02 02:45:14;;;;;;;;;;;23.40;72.30;;;;;;5034092;28;20019;-62
2022/09/02 02:47:41;;;;;;;;;;;23.60;71.90;;;;;;5033574;28;19968;-61
2022/09/02 02:50:09;;;;;;;;;;;23.40;72.10;;;;;;5033293;28;19979;-61
2022/09/02 02:52:34;;;;;;;;;;;23.60;72.00;;;;;;5048868;28;19929;-61
2022/09/02 02:55:00;;;;;;;;;;;23.40;72.00;;;;;;5036684;28;19925;-61
2022/09/02 02:57:26;;;;;;;;;;;23.50;72.00;;;;;;5043132;28;19925;-61
2022/09/02 02:59:51;;;;;;;;;;;23.70;72.10;;;;;;5057569;28;19932;-61
2022/09/02 03:02:17;;;;;;;;;;;23.70;72.00;;;;;;5039264;28;20406;-61
2022/09/02 03:04:43;;;;;;;;;;;23.50;72.00;;;;;;5052838;28;20302;-62
2022/09/02 03:07:09;;;;;;;;;;;23.40;71.90;;;;;;5037408;28;19925;-62
2022/09/02 03:09:34;;;;;;;;;;;23.30;71.70;;;;;;5037537;28;19925;-61
2022/09/02 03:12:00;;;;;;;;;;;23.40;72.20;;;;;;5048008;28;19983;-61
2022/09/02 03:14:26;;;;;;;;;;;23.40;71.80;;;;;;5051716;28;19949;-61
2022/09/02 03:16:52;;;;;;;;;;;23.40;72.00;;;;;;5051582;28;20058;-61
2022/09/02 03:19:17;;;;;;;;;;;23.30;71.80;;;;;;5037280;28;20405;-61
2022/09/02 03:21:43;;;;;;;;;;;23.40;72.10;;;;;;5038554;28;19952;-61
2022/09/02 03:24:09;;;;;;;;;;;23.30;71.70;;;;;;5057100;28;19925;-61
2022/09/02 03:26:35;;;;;;;;;;;23.60;72.40;;;;;;5057107;28;19971;-61
2022/09/02 03:29:01;;;;;;;;;;;23.60;72.10;;;;;;5039775;28;20322;-62
2022/09/02 03:31:27;;;;;;;;;;;23.40;71.90;;;;;;5042764;28;19925;-61
2022/09/02 03:33:53;;;;;;;;;;;23.60;71.90;;;;;;5038066;28;19940;-62
2022/09/02 03:36:20;;;;;;;;;;;23.40;72.00;;;;;;5041613;28;19929;-61
2022/09/02 03:38:46;;;;;;;;;;;23.60;72.20;;;;;;5037839;28;19925;-61
2022/09/02 03:41:11;;;;;;;;;;;23.40;72.00;;;;;;5036822;28;20290;-62
2022/09/02 03:43:37;;;;;;;;;;;23.60;71.80;;;;;;5043078;28;19936;-62
2022/09/02 03:46:04;;;;;;;;;;;23.00;71.60;;;;;;5056754;28;19928;-62
2022/09/02 03:48:29;;;;;;;;;;;23.60;71.90;;;;;;5028459;28;20283;-61
2022/09/02 03:50:55;;;;;;;;;;;23.50;71.90;;;;;;5036690;28;19926;-61
2022/09/02 03:53:20;;;;;;;;;;;23.30;71.70;;;;;;5037127;28;19925;-62
2022/09/02 03:55:46;;;;;;;;;;;23.50;71.90;;;;;;5054076;28;19925;-61
2022/09/02 03:58:12;;;;;;;;;;;23.30;71.70;;;;;;5055684;28;20363;-62
2022/09/02 04:00:38;;;;;;;;;;;23.30;71.80;;;;;;5050211;28;19975;-61
2022/09/02 04:03:03;;;;;;;;;;;23.70;71.70;;;;;;5018859;28;19987;-62
2022/09/02 04:05:29;;;;;;;;;;;23.50;71.80;;;;;;5040584;28;19996;-62
2022/09/02 04:07:55;;;;;;;;;;;23.60;71.50;;;;;;5035339;28;19925;-63
2022/09/02 04:10:23;;;;;;;;;;;23.50;71.70;;;;;;5035872;28;20468;-62
2022/09/02 04:12:49;;;;;;;;;;;23.50;71.40;;;;;;5036277;28;19925;-62
2022/09/02 04:15:14;;;;;;;;;;;23.50;71.50;;;;;;5039225;28;20374;-61
2022/09/02 04:17:40;;;;;;;;;;;23.70;71.70;;;;;;5038779;28;20007;-62
2022/09/02 04:20:06;;;;;;;;;;;23.50;71.50;;;;;;5055092;28;19970;-61
2022/09/02 04:22:32;;;;;;;;;;;23.50;71.50;;;;;;5050970;28;20345;-61
2022/09/02 04:24:58;;;;;;;;;;;23.70;71.50;;;;;;5054812;28;19929;-62
2022/09/02 04:27:23;;;;;;;;;;;23.30;71.50;;;;;;5053152;28;19925;-62
2022/09/02 04:29:49;;;;;;;;;;;23.50;71.40;;;;;;5042163;28;19925;-62
2022/09/02 04:32:15;;;;;;;;;;;23.60;71.60;;;;;;5055087;28;19964;-61
2022/09/02 04:34:41;;;;;;;;;;;23.70;71.60;;;;;;5055415;28;19925;-62
2022/09/02 04:37:06;;;;;;;;;;;23.50;71.70;;;;;;5054602;28;20390;-61
2022/09/02 04:39:32;;;;;;;;;;;23.60;71.50;;;;;;5042904;28;20012;-62
2022/09/02 04:41:58;;;;;;;;;;;23.50;71.30;;;;;;5054348;28;20290;-61
2022/09/02 04:44:24;;;;;;;;;;;23.50;71.50;;;;;;5039883;28;19925;-61
2022/09/02 04:46:50;;;;;;;;;;;23.40;71.50;;;;;;5035356;28;19925;-62
2022/09/02 04:49:16;;;;;;;;;;;23.30;71.40;;;;;;5035560;28;19931;-61
2022/09/02 04:51:41;;;;;;;;;;;23.40;71.50;;;;;;5036293;28;19944;-61
2022/09/02 04:54:07;;;;;;;;;;;23.60;71.70;;;;;;5035432;28;19933;-62
2022/09/02 04:56:33;;;;;;;;;;;23.40;71.70;;;;;;5025247;28;20375;-62
2022/09/02 04:58:58;;;;;;;;;;;23.40;71.50;;;;;;5053733;28;19932;-62
2022/09/02 05:01:25;;;;;;;;;;;23.20;71.40;;;;;;5055252;28;20039;-61
2022/09/02 05:03:52;;;;;;;;;;;23.50;71.90;;;;;;5054007;28;19931;-62
2022/09/02 05:06:19;;;;;;;;;;;23.60;71.50;;;;;;5055032;28;19925;-61
2022/09/02 05:08:46;;;;;;;;;;;23.70;71.80;;;;;;5052375;28;20532;-61
2022/09/02 05:11:19;;;;;;;;;;;23.50;71.60;;;;;;5034816;28;19931;-61
2022/09/02 05:13:47;;;;;;;;;;;23.30;70.20;;;;;;5036008;28;19925;-61
2022/09/02 05:16:16;;;;;;;;;;;23.40;71.70;;;;;;5035116;28;19932;-61
2022/09/02 05:18:42;;;;;;;;;;;23.60;70.40;;;;;;5034554;28;19987;-60
2022/09/02 05:21:08;;;;;;;;;;;23.40;71.40;;;;;;5053749;28;19929;-61
2022/09/02 05:23:34;;;;;;;;;;;23.60;71.30;;;;;;5048627;28;19925;-61
2022/09/02 05:26:03;;;;;;;;;;;23.60;71.20;;;;;;5034693;28;19932;-61
2022/09/02 05:28:29;;;;;;;;;;;23.70;71.60;;;;;;5035340;28;19925;-62
2022/09/02 05:30:55;;;;;;;;;;;23.60;71.20;;;;;;5035003;28;19931;-62
2022/09/02 05:33:21;;;;;;;;;;;23.70;70.70;;;;;;5034775;28;20294;-61
2022/09/02 05:35:47;;;;;;;;;;;23.80;71.40;;;;;;5035124;28;19925;-61
2022/09/02 05:38:13;;;;;;;;;;;23.70;71.10;;;;;;5037402;28;19925;-61
2022/09/02 05:40:39;;;;;;;;;;;23.80;71.00;;;;;;5034212;28;19932;-62
2022/09/02 05:43:05;;;;;;;;;;;23.70;70.80;;;;;;5034294;28;19925;-61
2022/09/02 05:45:30;;;;;;;;;;;24.00;71.00;;;;;;5035199;28;19968;-62
2022/09/02 05:47:56;;;;;;;;;;;24.00;70.30;;;;;;5043852;28;19924;-61
2022/09/02 05:50:22;;;;;;;;;;;24.20;70.30;;;;;;5052866;28;19979;-61
2022/09/02 05:52:51;;;;;;;;;;;24.40;70.30;;;;;;5054398;28;19929;-61
2022/09/02 05:55:16;;;;;;;;;;;24.40;69.10;;;;;;5069374;28;19968;-61
2022/09/02 05:57:44;;;;;;;;;;;24.60;70.10;;;;;;5046090;28;19971;-61
2022/09/02 06:00:10;;;;;;;;;;;24.30;69.70;;;;;;5043664;28;20058;-60
2022/09/02 06:02:36;;;;;;;;;;;24.70;69.50;;;;;;5036494;28;19976;-60
2022/09/02 06:05:02;;;;;;;;;;;24.90;69.60;;;;;;5043905;28;20383;-61
2022/09/02 06:07:28;;;;;;;;;;;24.60;69.40;;;;;;5034293;28;20386;-61
2022/09/02 06:09:54;;;;;;;;;;;24.90;69.10;;;;;;5034659;28;20016;-61
2022/09/02 06:12:19;;;;;;;;;;;25.20;69.20;;;;;;5035603;28;20336;-61
2022/09/02 06:14:46;;;;;;;;;;;25.10;68.70;;;;;;5032596;28;20008;-62
2022/09/02 06:17:12;;;;;;;;;;;25.40;69.10;;;;;;5034145;28;19925;-61
2022/09/02 06:19:37;;;;;;;;;;;25.60;69.00;;;;;;5016402;28;20414;-61
2022/09/02 06:22:03;;;;;;;;;;;25.50;68.50;;;;;;5046973;28;20322;-60
2022/09/02 06:24:29;;;;;;;;;;;25.70;68.20;;;;;;5053946;28;19986;-61
2022/09/02 06:26:55;;;;;;;;;;;25.40;68.10;;;;;;5053908;28;19928;-61
2022/09/02 06:29:21;;;;;;;;;;;25.80;68.00;;;;;;5035742;28;19987;-61
2022/09/02 06:31:47;;;;;;;;;;;25.80;68.00;;;;;;5047468;28;20004;-62
2022/09/02 06:34:14;;;;;;;;;;;25.90;67.90;;;;;;5033866;28;19925;-61
2022/09/02 06:36:40;;;;;;;;;;;26.10;67.90;;;;;;5033927;28;19925;-61
2022/09/02 06:39:06;;;;;;;;;;;25.90;67.50;;;;;;5043401;28;19932;-62
2022/09/02 06:41:32;;;;;;;;;;;26.20;67.50;;;;;;5030529;28;19929;-61
2022/09/02 06:43:59;;;;;;;;;;;26.30;67.40;;;;;;5040842;28;20298;-61
2022/09/02 06:46:25;;;;;;;;;;;26.30;67.60;;;;;;5033818;28;19925;-62
2022/09/02 06:48:51;;;;;;;;;;;26.30;67.60;;;;;;5033834;28;19925;-60
2022/09/02 06:51:20;;;;;;;;;;;26.40;67.20;;;;;;5033801;28;20332;-60
2022/09/02 06:53:46;;;;;;;;;;;26.40;67.30;;;;;;5035428;28;19932;-60
2022/09/02 06:56:12;;;;;;;;;;;26.50;66.90;;;;;;5037650;28;19924;-61
2022/09/02 06:58:37;;;;;;;;;;;26.70;66.30;;;;;;5053626;28;19929;-62
2022/09/02 07:01:03;;;;;;;;;;;26.60;65.90;;;;;;5053595;28;20385;-63
2022/09/02 07:06:13;;;;;;;;;;;26.60;64.70;;;;;;5033226;28;20014;-63
2022/09/02 07:08:39;;;;;;;;;;;26.40;65.00;;;;;;5033327;28;19968;-63
2022/09/02 07:11:05;;;;;;;;;;;26.40;65.80;;;;;;5034327;28;19926;-63
2022/09/02 07:13:31;;;;;;;;;;;26.30;65.50;;;;;;5034125;28;20263;-66
2022/09/02 07:15:57;;;;;;;;;;;26.40;65.80;;;;;;5033609;28;19925;-61
2022/09/02 07:18:23;;;;;;;;;;;26.20;65.20;;;;;;5047119;28;19974;-70
2022/09/02 07:20:48;;;;;;;;;;;26.30;65.60;;;;;;5052420;28;20362;-70
2022/09/02 07:23:14;;;;;;;;;;;26.10;65.40;;;;;;5035530;28;19971;-73
2022/09/02 07:25:40;;;;;;;;;;;26.00;65.60;;;;;;5053381;28;19978;-72
2022/09/02 07:28:06;;;;;;;;;;;26.10;65.70;;;;;;5052200;28;19931;-74
2022/09/02 07:30:32;;;;;;;;;;;26.20;66.20;;;;;;5044837;28;20326;-73
2022/09/02 07:32:58;;;;;;;;;;;26.00;65.70;;;;;;5033775;28;19929;-73
2022/09/02 07:35:24;;;;;;;;;;;26.10;66.00;;;;;;5033356;28;19925;-73
2022/09/02 07:37:49;;;;;;;;;;;26.20;66.00;;;;;;5033559;28;19994;-66
2022/09/02 07:40:15;;;;;;;;;;;26.20;65.90;;;;;;5051902;28;20386;-63
2022/09/02 07:42:41;;;;;;;;;;;25.80;66.00;;;;;;5053727;28;20298;-65
2022/09/02 07:45:07;;;;;;;;;;;26.20;66.50;;;;;;5036832;28;19968;-62
2022/09/02 07:47:33;;;;;;;;;;;26.00;65.90;;;;;;5051677;28;20293;-61
2022/09/02 07:49:59;;;;;;;;;;;25.90;65.90;;;;;;5054449;28;20039;-61
2022/09/02 07:52:25;;;;;;;;;;;25.80;66.00;;;;;;5056630;28;19925;-61
2022/09/02 07:54:50;;;;;;;;;;;26.00;65.90;;;;;;5040306;28;19925;-62
2022/09/02 07:57:16;;;;;;;;;;;26.10;66.00;;;;;;5057065;28;19932;-61
2022/09/02 07:59:42;;;;;;;;;;;26.20;65.80;;;;;;5048611;28;19925;-62
2022/09/02 08:02:08;;;;;;;;;;;26.00;65.90;;;;;;5045539;28;20016;-61
2022/09/02 08:04:34;;;;;;;;;;;26.20;66.10;;;;;;5042337;28;19929;-62
2022/09/02 08:07:00;;;;;;;;;;;26.40;66.20;;;;;;5036153;28;19925;-62
2022/09/02 08:09:25;;;;;;;;;;;26.10;65.70;;;;;;5036262;28;20310;-74
2022/09/02 08:11:51;;;;;;;;;;;26.50;66.10;;;;;;5051577;28;20336;-71
2022/09/02 08:14:18;;;;;;;;;;;26.30;65.90;;;;;;5054995;28;19925;-68
2022/09/02 08:16:44;;;;;;;;;;;26.50;66.30;;;;;;5044478;28;19961;-70
2022/09/02 08:19:10;;;;;;;;;;;26.60;66.20;;;;;;5036822;28;19987;-63
2022/09/02 08:21:36;;;;;;;;;;;26.60;66.70;;;;;;5050911;28;19925;-64
2022/09/02 08:24:01;;;;;;;;;;;26.70;65.90;;;;;;5055856;28;19995;-73
2022/09/02 08:26:27;;;;;;;;;;;26.60;65.70;;;;;;5052624;28;19971;-72
2022/09/02 08:28:53;;;;;;;;;;;26.50;65.60;;;;;;5055975;28;20413;-74
2022/09/02 08:31:19;;;;;;;;;;;26.60;66.10;;;;;;5055810;28;19925;-69
2022/09/02 08:33:45;;;;;;;;;;;26.60;65.80;;;;;;5055802;28;20297;-74
2022/09/02 08:36:13;;;;;;;;;;;26.90;66.10;;;;;;5052037;28;20488;-61
2022/09/02 08:38:39;;;;;;;;;;;26.70;65.80;;;;;;5036216;28;19973;-62
2022/09/02 08:41:12;;;;;;;;;;;26.70;66.10;;;;;;5035665;28;19925;-61
2022/09/02 08:43:41;;;;;;;;;;;27.10;64.90;;;;;;5040568;28;19940;-62
2022/09/02 08:46:09;;;;;;;;;;;26.80;65.90;;;;;;5030257;28;20135;-62
2022/09/02 08:49:02;;;;;;;;;;;26.80;65.90;;;;;;5034516;28;19932;-65
2022/09/02 08:51:29;;;;;;;;;;;27.00;64.50;;;;;;5029790;28;19924;-69
2022/09/02 08:54:06;;;;;;;;;;;26.90;65.40;;;;;;5065430;28;19925;-70
2022/09/02 08:56:32;;;;;;;;;;;26.90;64.30;;;;;;5048936;28;20692;-64
2022/09/02 08:59:02;;;;;;;;;;;27.10;65.80;;;;;;5066181;28;20011;-63
2022/09/02 09:01:29;;;;;;;;;;;27.00;65.70;;;;;;5062704;28;19928;-63
2022/09/02 09:04:03;;;;;;;;;;;26.80;65.60;;;;;;5065285;28;20069;-62
2022/09/02 09:06:49;;;;;;;;;;;26.70;64.50;;;;;;5044679;28;19932;-62
2022/09/02 09:09:35;;;;;;;;;;;26.80;66.00;;;;;;5031948;28;19978;-62
2022/09/02 09:12:03;;;;;;;;;;;26.70;64.20;;;;;;5044289;28;20285;-62
2022/09/02 09:14:55;;;;;;;;;;;26.90;64.40;;;;;;5054975;28;19932;-62
2022/09/02 09:17:25;;;;;;;;;;;26.90;64.60;;;;;;5046524;28;19931;-61
2022/09/02 09:19:55;;;;;;;;;;;26.70;65.80;;;;;;5066120;28;19925;-64
2022/09/02 09:22:24;;;;;;;;;;;26.80;65.80;;;;;;5054947;28;20023;-62
2022/09/02 09:24:49;;;;;;;;;;;26.90;65.70;;;;;;5054557;28;19931;-62
2022/09/02 09:27:19;;;;;;;;;;;26.70;65.30;;;;;;5058444;28;19924;-62
2022/09/02 09:29:45;;;;;;;;;;;26.70;65.50;;;;;;5037230;28;19971;-65
2022/09/02 09:32:33;;;;;;;;;;;26.70;65.20;;;;;;5036779;28;20342;-62
2022/09/02 09:35:09;;;;;;;;;;;26.70;64.10;;;;;;5034730;28;19983;-62
2022/09/02 09:37:38;;;;;;;;;;;26.60;66.00;;;;;;5062781;28;20396;-64
2022/09/02 09:40:21;;;;;;;;;;;26.60;64.50;;;;;;5047195;28;19925;-62
2022/09/02 09:43:04;;;;;;;;;;;26.40;66.00;;;;;;5042168;28;20417;-62
2022/09/02 09:45:31;;;;;;;;;;;26.20;64.60;;;;;;5063533;28;20395;-63
2022/09/02 09:48:15;;;;;;;;;;;26.50;66.10;;;;;;5034522;28;19932;-63
2022/09/02 09:50:41;;;;;;;;;;;26.40;65.00;;;;;;5034525;28;20023;-62
2022/09/02 09:53:19;;;;;;;;;;;26.40;66.50;;;;;;5046476;28;20028;-62
2022/09/02 09:55:52;;;;;;;;;;;26.30;66.40;;;;;;5053920;28;19925;-62
2022/09/02 09:58:17;;;;;;;;;;;26.60;66.30;;;;;;5034490;28;19929;-61
2022/09/02 10:00:43;;;;;;;;;;;26.40;67.20;;;;;;5032802;28;19996;-62
2022/09/02 10:03:09;;;;;;;;;;;26.20;67.10;;;;;;5043160;28;19925;-62
2022/09/02 10:05:35;;;;;;;;;;;26.50;67.40;;;;;;5055532;28;20023;-61
2022/09/02 10:08:02;;;;;;;;;;;26.30;67.20;;;;;;5044827;28;19933;-62
2022/09/02 10:10:29;;;;;;;;;;;25.90;66.80;;;;;;5052779;28;20295;-62
2022/09/02 10:13:15;;;;;;;;;;;26.50;67.90;;;;;;5053826;28;19925;-62
2022/09/02 10:15:49;;;;;;;;;;;26.20;65.60;;;;;;5045336;28;20007;-61
2022/09/02 10:18:17;;;;;;;;;;;26.20;65.80;;;;;;5049583;28;19932;-61
2022/09/02 10:20:49;;;;;;;;;;;26.50;66.00;;;;;;5048864;28;19925;-61
2022/09/02 10:23:21;;;;;;;;;;;26.60;66.80;;;;;;5050304;28;19925;-61
2022/09/02 10:26:03;;;;;;;;;;;26.40;65.30;;;;;;5036631;28;19990;-61
2022/09/02 10:28:47;;;;;;;;;;;26.30;65.30;;;;;;5086000;28;19947;-68
2022/09/02 10:31:22;;;;;;;;;;;26.00;64.90;;;;;;5073542;28;20392;-61
2022/09/02 10:33:51;;;;;;;;;;;26.20;64.80;;;;;;5073565;28;20011;-61
2022/09/02 10:36:19;;;;;;;;;;;26.20;64.90;;;;;;5066730;28;19925;-61
2022/09/02 10:38:46;;;;;;;;;;;26.10;64.80;;;;;;5052240;28;20397;-60
2022/09/02 10:41:33;;;;;;;;;;;26.30;66.30;;;;;;5053867;28;20026;-61
2022/09/02 10:44:08;;;;;;;;;;;26.10;64.80;;;;;;5053790;28;19979;-60
2022/09/02 10:46:39;;;;;;;;;;;26.20;64.90;;;;;;5063950;28;20004;-62
2022/09/02 10:49:05;;;;;;;;;;;26.20;65.90;;;;;;5056333;28;19925;-61
2022/09/02 10:51:37;;;;;;;;;;;26.10;65.60;;;;;;5033675;28;20493;-67
2022/09/02 10:54:03;;;;;;;;;;;26.30;64.30;;;;;;5044119;28;19925;-64
2022/09/02 10:56:33;;;;;;;;;;;26.40;65.90;;;;;;5051223;28;20390;-61
2022/09/02 10:59:13;;;;;;;;;;;26.20;64.40;;;;;;5047189;28;20290;-67
2022/09/02 11:01:53;;;;;;;;;;;26.10;64.30;;;;;;5069091;28;19984;-67
2022/09/02 11:04:19;;;;;;;;;;;26.30;64.30;;;;;;5053282;28;20382;-65
2022/09/02 11:06:45;;;;;;;;;;;26.50;65.40;;;;;;5059047;28;20046;-61
2022/09/02 11:09:40;;;;;;;;;;;26.20;64.60;;;;;;5066039;28;19924;-61
2022/09/02 11:12:09;;;;;;;;;;;26.30;63.80;;;;;;5011596;28;20375;-61
2022/09/02 11:14:41;;;;;;;;;;;26.40;64.20;;;;;;4995050;28;19925;-70
2022/09/02 11:17:08;;;;;;;;;;;26.60;63.50;;;;;;5012635;28;19926;-62
2022/09/02 11:19:36;;;;;;;;;;;26.40;64.60;;;;;;4994266;28;19925;-61
2022/09/02 11:22:16;;;;;;;;;;;26.40;64.60;;;;;;5015195;28;19925;-61
2022/09/02 11:24:51;;;;;;;;;;;26.40;63.20;;;;;;5015131;28;19925;-61
2022/09/02 11:27:19;;;;;;;;;;;26.50;63.20;;;;;;4995345;28;19957;-61
2022/09/02 11:29:44;;;;;;;;;;;26.30;64.40;;;;;;5012255;28;19934;-65
2022/09/02 11:32:17;;;;;;;;;;;26.50;64.20;;;;;;5014432;28;19932;-62
2022/09/02 11:34:47;;;;;;;;;;;26.50;62.80;;;;;;5014325;28;19931;-61
2022/09/02 11:37:22;;;;;;;;;;;26.10;64.00;;;;;;5014682;28;19964;-62
2022/09/02 11:39:56;;;;;;;;;;;26.60;64.00;;;;;;4994783;28;19925;-62
2022/09/02 11:42:22;;;;;;;;;;;26.20;62.10;;;;;;5012990;28;20303;-66
2022/09/02 11:45:02;;;;;;;;;;;26.60;63.60;;;;;;5014601;28;19925;-61
2022/09/02 11:47:28;;;;;;;;;;;26.50;62.50;;;;;;5018108;28;20016;-61
2022/09/02 11:50:00;;;;;;;;;;;26.50;63.20;;;;;;5056365;28;19925;-62
2022/09/02 11:52:44;;;;;;;;;;;26.70;62.50;;;;;;5057917;28;19925;-60
2022/09/02 11:55:15;;;;;;;;;;;26.60;62.40;;;;;;5070658;28;20018;-60
2022/09/02 11:57:41;;;;;;;;;;;26.60;62.30;;;;;;5071879;28;20346;-61
2022/09/02 12:00:08;;;;;;;;;;;26.50;63.10;;;;;;5055296;28;19963;-60
2022/09/02 12:02:38;;;;;;;;;;;26.90;63.30;;;;;;5069761;28;19924;-60
2022/09/02 12:05:22;;;;;;;;;;;26.50;61.70;;;;;;5075191;28;19931;-61
2022/09/02 12:07:48;;;;;;;;;;;26.60;61.70;;;;;;5075938;28;19924;-60
2022/09/02 12:10:33;;;;;;;;;;;26.40;62.50;;;;;;5075100;28;19932;-61
2022/09/02 12:13:00;;;;;;;;;;;26.80;61.80;;;;;;5066669;28;19931;-61
2022/09/02 12:15:25;;;;;;;;;;;26.60;63.10;;;;;;5067916;28;20394;-61
2022/09/02 12:17:52;;;;;;;;;;;26.80;62.90;;;;;;5075573;28;19950;-61
2022/09/02 12:20:50;;;;;;;;;;;26.70;63.00;;;;;;5076177;28;19928;-61
2022/09/02 12:23:38;;;;;;;;;;;26.60;61.40;;;;;;5033945;28;19932;-61
2022/09/02 12:26:05;;;;;;;;;;;26.60;61.50;;;;;;4972994;28;19988;-60
2022/09/02 12:28:32;;;;;;;;;;;26.60;62.60;;;;;;4970075;28;20027;-65
2022/09/02 12:31:04;;;;;;;;;;;26.80;62.50;;;;;;4981054;28;19938;-61
2022/09/02 12:33:29;;;;;;;;;;;27.00;61.70;;;;;;4959767;28;20304;-62
2022/09/02 12:35:57;;;;;;;;;;;26.70;62.30;;;;;;4964959;28;19926;-61
2022/09/02 12:38:23;;;;;;;;;;;26.80;62.10;;;;;;4957706;28;20024;-60
2022/09/02 12:40:55;;;;;;;;;;;26.80;62.60;;;;;;4974527;28;19927;-61
2022/09/02 12:43:25;;;;;;;;;;;26.70;61.10;;;;;;4958579;28;19926;-61
2022/09/02 12:45:52;;;;;;;;;;;26.80;61.20;;;;;;4973906;28;19933;-60
2022/09/02 12:48:18;;;;;;;;;;;26.80;62.60;;;;;;4975922;28;19930;-64
2022/09/02 12:50:44;;;;;;;;;;;27.00;62.80;;;;;;4985439;28;19973;-63
2022/09/02 12:53:09;;;;;;;;;;;26.90;62.30;;;;;;4981378;28;19930;-61
2022/09/02 12:55:35;;;;;;;;;;;26.70;62.40;;;;;;4956979;28;19933;-60
2022/09/02 12:58:08;;;;;;;;;;;26.80;62.10;;;;;;4988919;28;19952;-60
2022/09/02 13:00:39;;;;;;;;;;;26.70;61.10;;;;;;5009561;28;19925;-60
2022/09/02 13:03:07;;;;;;;;;;;26.90;61.00;;;;;;5024631;28;19932;-61
2022/09/02 13:05:52;;;;;;;;;;;26.70;60.70;;;;;;5055324;28;19924;-60
2022/09/02 13:08:32;;;;;;;;;;;26.70;60.60;;;;;;5064012;28;20302;-60
2022/09/02 13:11:13;;;;;;;;;;;26.70;60.10;;;;;;5067383;28;19925;-60
2022/09/02 13:13:48;;;;;;;;;;;26.90;60.40;;;;;;5063790;28;19928;-60
2022/09/02 13:16:23;;;;;;;;;;;26.90;60.60;;;;;;5075059;28;19931;-61
2022/09/02 13:19:05;;;;;;;;;;;26.70;60.30;;;;;;5067574;28;19924;-62
2022/09/02 13:21:31;;;;;;;;;;;26.70;60.20;;;;;;5053795;28;19925;-61
2022/09/02 13:24:15;;;;;;;;;;;26.60;61.30;;;;;;5055436;28;19936;-60
2022/09/02 13:26:52;;;;;;;;;;;26.50;60.20;;;;;;5055420;28;19924;-61
2022/09/02 13:29:36;;;;;;;;;;;26.70;60.20;;;;;;5049220;28;19929;-60
2022/09/02 13:32:03;;;;;;;;;;;26.70;60.00;;;;;;5054657;28;20032;-61
2022/09/02 13:34:29;;;;;;;;;;;26.80;61.20;;;;;;5060478;28;19925;-62
2022/09/02 13:36:55;;;;;;;;;;;26.90;61.20;;;;;;5074712;28;19925;-60
2022/09/02 13:39:26;;;;;;;;;;;26.60;60.90;;;;;;5069818;28;19931;-60
2022/09/02 13:41:52;;;;;;;;;;;26.80;60.10;;;;;;5071452;28;19971;-60
2022/09/02 13:44:21;;;;;;;;;;;26.70;61.00;;;;;;5077465;28;20390;-65
2022/09/02 13:46:48;;;;;;;;;;;26.60;59.60;;;;;;5062757;28;19928;-61
2022/09/02 13:49:18;;;;;;;;;;;26.50;60.90;;;;;;5089739;28;19982;-61
2022/09/02 13:51:44;;;;;;;;;;;26.60;59.80;;;;;;5080906;28;19956;-66
2022/09/02 13:54:09;;;;;;;;;;;26.70;61.40;;;;;;5083801;28;20281;-61
2022/09/02 13:56:35;;;;;;;;;;;26.30;60.90;;;;;;5082496;28;19924;-61
2022/09/02 13:59:01;;;;;;;;;;;26.70;61.30;;;;;;5083183;28;20390;-65
2022/09/02 14:01:28;;;;;;;;;;;26.60;61.00;;;;;;5088878;28;19935;-61
2022/09/02 14:03:54;;;;;;;;;;;26.50;61.00;;;;;;5065345;28;19931;-61
2022/09/02 14:06:25;;;;;;;;;;;26.50;61.00;;;;;;5059138;28;19931;-61
2022/09/02 14:08:52;;;;;;;;;;;26.80;61.10;;;;;;5073747;28;19925;-61
2022/09/02 14:11:18;;;;;;;;;;;26.60;60.80;;;;;;5073289;28;19931;-61
2022/09/02 14:13:47;;;;;;;;;;;26.60;60.40;;;;;;5083267;28;20289;-60
2022/09/02 14:16:24;;;;;;;;;;;26.70;61.30;;;;;;5093890;28;19986;-63
2022/09/02 14:19:10;;;;;;;;;;;26.60;59.90;;;;;;5054113;28;20026;-61
2022/09/02 14:21:36;;;;;;;;;;;26.30;59.70;;;;;;5062180;28;19924;-61
2022/09/02 14:24:02;;;;;;;;;;;26.40;61.20;;;;;;5071794;28;19967;-60
2022/09/02 14:26:37;;;;;;;;;;;26.50;60.70;;;;;;5072816;28;19925;-60